Time;durP1;ratioP1;P1;durP2;ratioP2;P2;SDS_P1;SDS_P2;PMS_P1;PMS_P2;Temp;Humidity;BMP_temperature;BMP_pressure;BME280_temperature;BME280_humidity;BME280_pressure;Samples;Min_cycle;Max_cycle;Signal;HPM_P1;HPM_P2
2020/12/20 00:01:14;;;;;;;16.80;7.63;;;;;;;-3.67;34.54;102940.41;4957847;28;20039;-92
2020/12/20 00:03:49;;;;;;;16.23;8.30;;;;;;;-4.67;34.24;102773.69;4958575;29;20039;-92
2020/12/20 00:06:18;;;;;;;25.92;8.98;;;;;;;-4.22;33.65;102840.19;4957861;28;20059;-90
2020/12/20 00:08:47;;;;;;;20.85;9.27;;;;;;;-5.17;33.23;102711.09;4960345;29;20131;-94
2020/12/20 00:11:14;;;;;;;28.48;8.98;;;;;;;-3.22;34.08;103029.53;4936820;29;20039;-92
2020/12/20 00:13:41;;;;;;;17.45;8.43;;;;;;;-3.77;33.57;102940.13;4935099;29;20476;-94
2020/12/20 00:16:08;;;;;;;19.88;9.45;;;;;;;-3.63;34.77;102978.97;4949672;29;20090;-93
2020/12/20 00:18:34;;;;;;;16.00;8.82;;;;;;;-3.77;34.95;102967.19;4934616;29;20459;-94
2020/12/20 00:21:01;;;;;;;22.85;10.48;;;;;;;-5.70;35.24;102660.38;4936375;29;20081;-93
2020/12/20 00:23:28;;;;;;;18.83;8.85;;;;;;;-4.35;34.82;102818.50;4937417;29;20031;-94
2020/12/20 00:25:55;;;;;;;26.02;10.82;;;;;;;-3.45;34.35;102941.69;4938119;29;20068;-93
2020/12/20 00:28:25;;;;;;;22.33;9.52;;;;;;;-5.18;34.15;102662.59;4936960;29;20034;-94
2020/12/20 00:30:51;;;;;;;18.95;9.50;;;;;;;-3.16;34.30;102990.28;4936872;29;20111;-94
2020/12/20 00:33:18;;;;;;;18.67;9.50;;;;;;;-4.51;33.83;102766.41;4962375;28;20031;-93
2020/12/20 00:35:45;;;;;;;18.60;10.27;;;;;;;-2.86;33.77;103032.56;4958233;28;20488;-94
2020/12/20 00:38:12;;;;;;;17.88;10.60;;;;;;;-2.71;33.97;103019.81;4956257;29;20027;-93
2020/12/20 00:40:39;;;;;;;21.27;10.40;;;;;;;-4.73;35.47;102692.09;4948229;29;20031;-94
2020/12/20 00:43:07;;;;;;;17.60;9.20;;;;;;;-3.51;35.98;102896.88;4939972;29;20031;-93
2020/12/20 00:45:35;;;;;;;19.35;10.07;;;;;;;-2.59;35.98;103025.34;4930434;29;20099;-96
2020/12/20 00:48:09;;;;;;;24.65;10.18;;;;;;;-4.80;36.74;102688.94;4948509;29;20019;-94
2020/12/20 00:50:36;;;;;;;18.35;10.57;;;;;;;-3.77;36.81;102867.03;4975700;28;20046;-96
2020/12/20 00:53:05;;;;;;;23.33;10.05;;;;;;;-3.63;35.81;102889.63;4973486;28;20062;-94
2020/12/20 00:55:34;;;;;;;16.65;8.25;;;;;;;-3.33;34.54;102938.13;4982983;28;20019;-90
2020/12/20 00:58:07;;;;;;;24.70;9.88;;;;;;;-3.40;34.51;102906.16;4991768;28;20035;-87
2020/12/20 01:00:35;;;;;;;24.55;10.00;;;;;;;-3.75;36.34;102846.13;4981162;28;20122;-93
2020/12/20 01:06:25;;;;;;;18.40;9.60;;;;;;;-2.86;36.34;103021.72;4993364;28;20522;-94
2020/12/20 01:27:03;;;;;;;18.35;9.95;;;;;;;-2.63;33.88;102968.59;5767650;23;20078;-90
2020/12/20 01:29:33;;;;;;;19.65;10.07;;;;;;;-1.96;33.53;103063.50;4992666;28;20030;-90
2020/12/20 01:32:01;;;;;;;21.42;9.23;;;;;;;-2.76;32.84;102905.34;4986292;28;20031;-92
2020/12/20 01:34:28;;;;;;;24.20;10.27;;;;;;;-1.88;33.57;103061.09;4990075;28;20399;-93
2020/12/20 01:36:58;;;;;;;21.15;9.80;;;;;;;-2.64;33.49;102980.44;4989538;28;20026;-78
2020/12/20 01:39:25;;;;;;;23.00;9.82;;;;;;;-1.90;33.14;103064.88;4994087;28;20109;-81
2020/12/20 01:41:55;;;;;;;19.67;9.20;;;;;;;-3.20;33.10;102808.09;4991272;28;20047;-92
2020/12/20 01:44:23;;;;;;;15.38;7.68;;;;;;;-2.01;32.94;102979.66;5015209;28;20026;-96
2020/12/20 01:47:12;;;;;;;23.10;10.20;;;;;;;-2.23;32.42;102934.19;4994776;28;20065;-96
2020/12/20 01:49:41;;;;;;;20.75;10.70;;;;;;;-1.81;32.21;103013.50;5001522;28;20015;-96
2020/12/20 01:52:09;;;;;;;28.45;10.77;;;;;;;-1.41;32.12;103068.59;5004721;28;20035;-95
2020/12/20 01:54:38;;;;;;;16.42;11.32;;;;;;;-4.05;31.64;102595.56;5024487;23;20058;-96
2020/12/20 01:57:07;;;;;;;19.25;10.20;;;;;;;-3.16;32.83;102755.41;5113576;23;20051;-96
2020/12/20 01:59:36;;;;;;;21.67;10.02;;;;;;;-1.26;33.09;103070.19;4957394;29;20058;-92
2020/12/20 02:02:03;;;;;;;30.20;11.02;;;;;;;-1.61;34.25;103060.03;4957797;28;20031;-94
2020/12/20 02:04:30;;;;;;;21.55;10.02;;;;;;;-1.71;34.76;103050.84;4983385;28;20027;-95
2020/12/20 02:06:57;;;;;;;19.48;10.50;;;;;;;-2.23;34.65;102975.78;4965250;28;20019;-96
2020/12/20 02:09:26;;;;;;;31.52;11.02;;;;;;;-2.07;34.82;102951.09;4979662;28;20031;-93
2020/12/20 02:12:01;;;;;;;22.38;9.60;;;;;;;-1.19;34.17;103053.41;4953295;28;20090;-95
2020/12/20 02:14:34;;;;;;;19.52;9.43;;;;;;;-1.80;33.65;102966.34;4986559;28;20039;-94
2020/12/20 02:17:01;;;;;;;24.92;10.57;;;;;;;-1.13;33.41;103036.66;4973918;28;20067;-93
2020/12/20 02:19:28;;;;;;;23.88;10.32;;;;;;;-1.63;33.27;102956.06;4971337;28;20034;-92
2020/12/20 02:21:55;;;;;;;17.30;11.82;;;;;;;-1.96;33.16;102919.59;4971421;28;20031;-92
2020/12/20 02:24:22;;;;;;;19.80;8.13;;;;;;;-1.67;31.22;102962.69;4971254;28;20089;-96
2020/12/20 02:26:49;;;;;;;17.88;7.53;;;;;;;-1.71;29.37;103050.84;4971942;28;20023;-95
2020/12/20 02:29:16;;;;;;;13.40;7.90;;;;;;;-1.66;29.46;103030.50;4963469;28;20050;-93
2020/12/20 02:31:43;;;;;;;15.70;6.78;;;;;;;-1.97;28.96;102945.00;4969424;28;20035;-94
2020/12/20 02:45:51;;;;;;;14.80;7.65;;;;;;;-3.30;29.89;102758.25;5288877;23;20066;-95
2020/12/20 02:48:21;;;;;;;11.85;7.38;;;;;;;-2.04;29.08;102931.00;4991642;28;20039;-94
2020/12/20 03:00:55;;;;;;;9.65;6.03;;;;;;;-1.60;29.65;102988.44;5014663;28;20058;-93
2020/12/20 03:03:55;;;;;;;15.85;6.68;;;;;;;-1.63;29.05;102969.66;4999737;28;20046;-93
2020/12/20 03:06:23;;;;;;;12.75;7.13;;;;;;;-2.73;29.91;102842.78;4999973;28;20026;-95
2020/12/20 03:08:50;;;;;;;11.75;6.57;;;;;;;-2.80;29.90;102819.81;4981486;28;20022;-96
2020/12/20 03:11:17;;;;;;;14.38;6.40;;;;;;;-1.95;30.26;102965.59;4997311;28;20113;-96
2020/12/20 03:13:50;;;;;;;9.93;6.75;;;;;;;-2.81;30.63;102801.78;4981572;28;20082;-95
2020/12/20 03:22:10;;;;;;;14.05;6.28;;;;;;;-1.83;30.47;102966.56;5586729;23;20052;-94
2020/12/20 03:24:41;;;;;;;16.38;7.28;;;;;;;-2.44;30.33;102800.94;4957563;29;20047;-96
2020/12/20 03:27:08;;;;;;;8.30;5.47;;;;;;;-1.55;30.22;102948.22;4939869;29;20039;-95
2020/12/20 03:32:26;;;;;;;10.80;6.90;;;;;;;-4.12;30.22;102523.91;5042282;23;20054;-95
2020/12/20 03:34:56;;;;;;;12.55;7.53;;;;;;;-2.93;29.69;102658.03;4943294;28;20039;-96
2020/12/20 03:37:23;;;;;;;14.38;8.15;;;;;;;-1.92;30.50;102869.47;4952783;28;20038;-94
2020/12/20 03:39:50;;;;;;;16.52;5.95;;;;;;;-2.12;29.96;102816.69;4949790;28;20031;-92
2020/12/20 03:42:17;;;;;;;13.95;6.75;;;;;;;-1.61;30.25;102917.94;4958126;28;20031;-93
2020/12/20 03:45:13;;;;;;;15.98;7.72;;;;;;;-1.58;30.69;102904.97;4979710;28;20047;-91
2020/12/20 03:47:40;;;;;;;11.05;6.57;;;;;;;-1.77;29.92;102834.00;4922847;29;20047;-96
2020/12/20 03:50:07;;;;;;;12.50;7.38;;;;;;;-1.39;30.41;102903.56;4971279;28;20059;-94
2020/12/20 03:52:34;;;;;;;12.63;6.68;;;;;;;-2.00;30.32;102820.31;4951533;28;20453;-93
2020/12/20 03:55:02;;;;;;;10.88;5.53;;;;;;;-2.72;30.76;102689.94;4949778;29;20028;-96
2020/12/20 03:57:29;;;;;;;8.90;5.80;;;;;;;-2.61;31.05;102711.69;4944972;28;20459;-91
2020/12/20 03:59:59;;;;;;;12.38;6.80;;;;;;;-2.23;31.29;102779.50;4954450;29;20059;-92
2020/12/20 04:02:26;;;;;;;26.45;8.00;;;;;;;-2.48;30.46;102670.94;4948557;29;20043;-92
2020/12/20 04:04:54;;;;;;;14.75;7.70;;;;;;;-1.76;30.55;102808.56;4940147;28;20031;-94
2020/12/20 04:07:23;;;;;;;17.33;6.63;;;;;;;-1.10;31.29;102884.16;4947010;28;20078;-83
2020/12/20 04:09:50;;;;;;;15.60;7.18;;;;;;;-2.29;31.60;102720.25;4959949;28;20035;-96
2020/12/20 04:12:17;;;;;;;15.23;7.60;;;;;;;-2.10;31.35;102742.31;4958218;29;20036;-96
2020/12/20 04:14:45;;;;;;;18.13;8.63;;;;;;;-1.52;32.08;102877.34;4950583;28;20031;-96
2020/12/20 04:17:12;;;;;;;18.05;8.88;;;;;;;-1.91;32.24;102808.75;4958677;28;20035;-96
2020/12/20 04:19:39;;;;;;;13.95;8.07;;;;;;;-2.54;32.32;102716.66;4945304;28;20042;-96
2020/12/20 04:22:11;;;;;;;18.25;7.22;;;;;;;-2.37;32.79;102746.09;4955207;28;20031;-95
2020/12/20 04:24:46;;;;;;;17.02;7.75;;;;;;;-1.90;32.91;102817.78;4964926;28;20035;-93
2020/12/20 04:27:13;;;;;;;22.45;7.55;;;;;;;-2.13;32.80;102758.81;4958011;28;20031;-95
2020/12/20 04:29:40;;;;;;;18.98;9.07;;;;;;;-1.54;32.67;102821.41;4941959;29;20441;-95
2020/12/20 04:32:08;;;;;;;12.68;7.30;;;;;;;-1.98;32.23;102717.91;4940008;28;20052;-96
2020/12/20 04:34:35;;;;;;;13.50;7.25;;;;;;;-2.12;33.04;102690.00;4918455;29;20070;-95
2020/12/20 04:37:02;;;;;;;19.30;8.50;;;;;;;-1.34;33.71;102868.75;4927476;29;20028;-95
2020/12/20 04:39:32;;;;;;;21.90;8.77;;;;;;;-3.51;34.05;102539.41;4935928;29;21322;-95
2020/12/20 04:42:01;;;;;;;16.05;7.30;;;;;;;-1.39;33.95;102876.41;4929891;29;20132;-95
2020/12/20 04:44:28;;;;;;;15.73;7.97;;;;;;;-4.30;34.21;102355.69;4918355;29;20027;-96
2020/12/20 04:46:56;;;;;;;25.52;9.20;;;;;;;-1.64;33.77;102780.50;4931577;29;20020;-95
2020/12/20 04:49:24;;;;;;;17.33;7.80;;;;;;;-1.05;33.65;102862.91;4916913;29;20019;-96
2020/12/20 04:51:52;;;;;;;18.33;8.10;;;;;;;-1.65;33.65;102708.13;4931183;29;20067;-96
2020/12/20 04:54:19;;;;;;;13.20;7.53;;;;;;;-2.02;34.29;102616.81;4930731;29;20027;-96
2020/12/20 04:56:46;;;;;;;15.95;7.63;;;;;;;-0.75;34.08;102839.69;4946676;29;20031;-96
2020/12/20 04:59:13;;;;;;;16.08;8.40;;;;;;;-1.79;34.67;102685.63;4928066;29;20032;-96
2020/12/20 05:01:40;;;;;;;12.82;7.68;;;;;;;-1.56;35.06;102755.41;4928171;29;20042;-96
2020/12/20 05:04:11;;;;;;;18.80;8.10;;;;;;;-2.38;35.43;102630.44;4942449;29;20029;-96
2020/12/20 05:06:38;;;;;;;17.42;8.55;;;;;;;-1.11;35.45;102828.88;4936903;29;20023;-94
2020/12/20 05:09:09;;;;;;;14.30;7.65;;;;;;;-1.22;35.30;102763.66;4923674;29;20123;-96
2020/12/20 05:11:42;;;;;;;19.10;8.05;;;;;;;-0.72;35.27;102842.16;4931795;29;20040;-96
2020/12/20 05:14:09;;;;;;;13.55;7.80;;;;;;;-0.59;34.79;102841.19;4925198;29;20032;-95
2020/12/20 05:16:38;;;;;;;13.70;7.50;;;;;;;-1.83;35.80;102656.13;4944645;29;20047;-95
2020/12/20 05:19:08;;;;;;;15.43;7.18;;;;;;;-1.42;36.18;102728.03;4924565;29;20036;-96
2020/12/20 05:21:35;;;;;;;15.20;7.70;;;;;;;-0.99;36.32;102835.25;4950355;29;20040;-94
2020/12/20 05:24:27;;;;;;;16.58;10.43;;;;;;;-1.14;36.30;102830.97;4944810;29;20034;-96
2020/12/20 05:26:54;;;;;;;15.95;7.22;;;;;;;-1.44;36.15;102746.31;4928417;29;20036;-96
2020/12/20 05:29:28;;;;;;;21.33;9.20;;;;;;;-0.94;36.63;102836.72;4923457;29;20036;-95
2020/12/20 05:31:55;;;;;;;16.50;7.97;;;;;;;-1.66;37.20;102744.44;4943947;28;20047;-96
2020/12/20 05:34:23;;;;;;;15.30;6.68;;;;;;;-2.34;37.46;102631.94;4960933;29;20041;-94
2020/12/20 05:36:53;;;;;;;17.85;7.68;;;;;;;-1.40;37.31;102809.44;4971581;29;20031;-95
2020/12/20 05:39:28;;;;;;;12.68;7.60;;;;;;;-2.02;37.41;102722.69;4968773;29;21689;-95
2020/12/20 05:41:55;;;;;;;13.82;7.68;;;;;;;-1.72;36.99;102679.72;4953729;29;20034;-96
2020/12/20 05:44:24;;;;;;;16.52;7.60;;;;;;;-2.97;36.80;102499.28;4944508;28;20027;-95
2020/12/20 05:47:29;;;;;;;14.57;7.68;;;;;;;-2.48;37.17;102548.03;4975529;28;20031;-95
2020/12/20 05:49:56;;;;;;;13.07;7.05;;;;;;;-2.41;37.46;102583.69;4950363;28;20452;-93
2020/12/20 05:52:29;;;;;;;14.20;8.60;;;;;;;-2.59;37.53;102510.91;4948320;28;20396;-95
2020/12/20 05:54:59;;;;;;;13.55;8.15;;;;;;;-0.75;37.44;102828.81;4965845;28;20035;-94
2020/12/20 05:57:26;;;;;;;15.60;7.82;;;;;;;-1.86;37.97;102659.94;4945618;28;20032;-96
2020/12/20 05:59:54;;;;;;;17.05;7.40;;;;;;;-1.00;37.99;102789.97;4944954;28;20106;-96
2020/12/20 06:02:21;;;;;;;14.60;7.78;;;;;;;-1.00;38.41;102832.63;4947598;29;20036;-96
2020/12/20 06:04:49;;;;;;;19.90;7.60;;;;;;;-2.31;38.56;102567.56;4957778;28;20095;-96
2020/12/20 06:07:17;;;;;;;13.63;8.57;;;;;;;-1.01;39.10;102848.06;4969801;28;20043;-96
2020/12/20 06:09:50;;;;;;;12.75;7.07;;;;;;;-0.54;38.22;102825.31;4946849;28;20055;-96
2020/12/20 06:12:32;;;;;;;16.58;8.18;;;;;;;-1.75;38.30;102599.34;4966342;28;20082;-96
2020/12/20 06:15:00;;;;;;;11.30;7.43;;;;;;;-1.45;38.40;102637.75;4938543;29;20043;-96
2020/12/20 06:17:28;;;;;;;16.50;7.97;;;;;;;-0.40;38.51;102807.00;4940367;29;20054;-96
2020/12/20 06:20:04;;;;;;;14.57;7.50;;;;;;;-0.27;38.36;102807.75;4938636;29;20054;-96
2020/12/20 06:22:36;;;;;;;14.50;8.43;;;;;;;-1.14;39.54;102725.84;4949268;29;20031;-94
2020/12/20 06:25:06;;;;;;;19.58;9.00;;;;;;;-1.34;39.52;102726.56;4955576;29;20023;-96
2020/12/20 06:27:35;;;;;;;14.73;7.57;;;;;;;-2.18;39.66;102594.59;4955528;29;20028;-96
2020/12/20 06:30:05;;;;;;;15.15;7.82;;;;;;;-2.02;38.92;102526.41;4947536;28;20031;-95
2020/12/20 06:32:35;;;;;;;14.27;7.95;;;;;;;-0.42;39.21;102804.41;4967382;28;20075;-94
2020/12/20 06:35:11;;;;;;;16.30;8.55;;;;;;;-2.25;39.69;102570.63;4950984;29;20024;-96
2020/12/20 06:37:45;;;;;;;15.00;7.57;;;;;;;-0.91;39.63;102780.22;4962365;28;20099;-95
2020/12/20 06:40:13;;;;;;;22.70;8.52;;;;;;;-1.14;39.27;102727.69;4936917;29;20035;-96
2020/12/20 06:42:44;;;;;;;16.20;9.25;;;;;;;-0.65;38.48;102836.22;4942282;29;20031;-95
2020/12/20 06:45:19;;;;;;;16.65;8.80;;;;;;;-0.61;38.53;102821.38;4940493;29;20035;-95
2020/12/20 06:47:51;;;;;;;15.95;8.27;;;;;;;-0.70;38.65;102818.41;4936014;29;20031;-93
2020/12/20 06:50:41;;;;;;;15.38;8.55;;;;;;;-0.63;38.58;102817.91;4942619;29;20023;-96
2020/12/20 06:53:13;;;;;;;15.55;8.63;;;;;;;-1.98;37.66;102571.31;4956904;29;20194;-96
2020/12/20 06:55:40;;;;;;;20.65;8.93;;;;;;;-1.56;37.70;102672.09;4940310;29;20031;-96
2020/12/20 06:58:22;;;;;;;15.82;8.10;;;;;;;-1.34;38.26;102700.25;4945621;29;20027;-95
2020/12/20 07:00:49;;;;;;;24.73;11.10;;;;;;;-0.51;39.18;102827.81;5413843;23;20062;-96
2020/12/20 07:03:25;;;;;;;14.55;6.93;;;;;;;-1.09;40.66;102763.53;4986823;28;20039;-95
2020/12/20 07:05:53;;;;;;;14.75;7.95;;;;;;;-3.87;40.94;102294.84;4978381;28;20034;-96
2020/12/20 07:08:25;;;;;;;17.42;8.40;;;;;;;-1.41;41.22;102685.44;4968151;28;20033;-96
2020/12/20 07:10:56;;;;;;;14.15;8.32;;;;;;;-1.87;42.06;102660.94;4983038;28;20412;-96
2020/12/20 07:13:44;;;;;;;21.40;9.02;;;;;;;-2.16;41.86;102588.06;4967537;28;20027;-95
2020/12/20 07:16:13;;;;;;;20.33;7.18;;;;;;;-1.84;41.63;102676.97;4980544;28;20034;-96
2020/12/20 07:18:50;;;;;;;17.15;8.48;;;;;;;-1.80;41.62;102673.03;4967651;28;20109;-94
2020/12/20 07:21:20;;;;;;;16.85;8.00;;;;;;;-0.83;41.51;102825.84;4994066;28;20042;-94
2020/12/20 07:24:00;;;;;;;14.82;8.40;;;;;;;-0.75;41.37;102820.66;4980434;28;20042;-95
2020/12/20 07:26:51;;;;;;;14.38;9.20;;;;;;;-2.38;41.40;102573.44;4967388;28;20101;-96
2020/12/20 07:29:19;;;;;;;16.00;8.73;;;;;;;-3.25;41.13;102392.16;4974815;28;20062;-96
2020/12/20 07:31:50;;;;;;;19.23;8.25;;;;;;;-2.55;41.96;102527.78;4989294;28;20033;-96
2020/12/20 07:34:17;;;;;;;14.68;7.80;;;;;;;-0.98;42.40;102839.69;4979503;28;20023;-96
2020/12/20 07:36:46;;;;;;;16.77;8.07;;;;;;;-4.03;42.49;102346.53;4966762;28;20026;-95
2020/12/20 07:39:15;;;;;;;19.25;9.13;;;;;;;-3.32;42.27;102463.06;4985876;28;20046;-96
2020/12/20 07:41:42;;;;;;;14.68;7.18;;;;;;;-2.08;42.30;102680.59;4975003;28;20126;-96
2020/12/20 07:44:11;;;;;;;20.00;9.00;;;;;;;-3.39;42.85;102505.13;4962831;28;20035;-95
2020/12/20 07:46:38;;;;;;;15.30;7.82;;;;;;;-1.29;42.31;102839.38;4967577;28;20543;-94
2020/12/20 07:52:08;;;;;;;19.55;9.30;;;;;;;-2.26;42.94;102682.03;5023669;23;20059;-95
2020/12/20 07:54:37;;;;;;;19.13;9.38;;;;;;;-2.22;42.23;102683.53;4992431;28;20054;-96
2020/12/20 07:57:05;;;;;;;18.65;7.95;;;;;;;-2.93;42.02;102555.03;4980434;28;20026;-96
2020/12/20 07:59:32;;;;;;;15.07;8.10;;;;;;;-1.42;41.98;102792.41;4977212;28;20026;-96
2020/12/20 08:02:02;;;;;;;14.23;7.72;;;;;;;-1.04;41.73;102872.78;4975568;28;20030;-96
2020/12/20 08:04:29;;;;;;;25.77;9.40;;;;;;;-2.86;42.18;102565.41;4972773;28;20023;-95
2020/12/20 08:06:56;;;;;;;16.70;8.98;;;;;;;-2.02;41.79;102700.13;4974460;28;20085;-96
2020/12/20 08:09:25;;;;;;;20.88;8.80;;;;;;;-1.63;41.99;102736.03;4990669;28;20027;-95
2020/12/20 08:11:54;;;;;;;18.30;8.48;;;;;;;-1.84;42.94;102752.16;4973965;28;20031;-95
2020/12/20 08:14:25;;;;;;;15.05;7.78;;;;;;;-3.09;44.62;102544.47;4974897;28;20619;-96
2020/12/20 08:16:54;;;;;;;15.98;7.80;;;;;;;-2.22;44.81;102683.53;4974109;28;20062;-96
2020/12/20 08:19:29;;;;;;;12.57;6.30;;;;;;;-2.93;45.05;102538.75;4974370;28;20054;-95
2020/12/20 08:22:17;;;;;;;19.45;8.10;;;;;;;-3.08;45.33;102529.06;4982743;28;20038;-96
2020/12/20 08:27:29;;;;;;;13.07;7.47;;;;;;;-1.48;46.36;102833.63;5426441;23;20103;-94
2020/12/20 08:29:58;;;;;;;13.35;7.18;;;;;;;-2.20;46.54;102714.16;4957535;28;20050;-96
2020/12/20 08:32:41;;;;;;;18.95;8.20;;;;;;;-1.57;46.60;102803.47;4965649;28;20111;-96
2020/12/20 08:35:22;;;;;;;16.80;8.40;;;;;;;-1.81;46.43;102752.78;4958465;28;20061;-91
2020/12/20 08:38:00;;;;;;;17.50;7.57;;;;;;;-2.64;45.93;102652.28;4972062;28;20452;-89
2020/12/20 08:40:32;;;;;;;20.48;9.45;;;;;;;-1.89;46.11;102771.53;4972287;28;20038;-87
2020/12/20 08:43:01;;;;;;;13.48;7.53;;;;;;;-2.01;46.07;102724.47;4955050;28;20031;-89
2020/12/20 08:45:28;;;;;;;13.40;7.00;;;;;;;-1.59;46.09;102805.44;4955558;28;20541;-89
2020/12/20 08:48:03;;;;;;;12.93;7.35;;;;;;;-1.59;45.41;102739.38;4954236;28;20041;-88
2020/12/20 08:50:31;;;;;;;19.55;8.88;;;;;;;-0.95;45.45;102862.19;4986049;28;20026;-90
2020/12/20 08:53:07;;;;;;;19.92;9.25;;;;;;;-0.89;45.36;102861.69;4956344;28;20045;-92
2020/12/20 08:55:34;;;;;;;20.10;9.68;;;;;;;-1.01;45.48;102886.13;4972755;28;20041;-91
2020/12/20 08:58:02;;;;;;;20.02;8.80;;;;;;;-1.13;45.66;102868.09;4957960;28;20035;-91
2020/12/20 09:00:29;;;;;;;22.48;9.88;;;;;;;-1.25;45.45;102830.00;4972361;28;20026;-94
2020/12/20 09:03:04;;;;;;;15.18;7.68;;;;;;;-1.61;45.90;102777.53;4974441;28;20377;-93
2020/12/20 09:05:35;;;;;;;17.98;9.15;;;;;;;-2.69;46.65;102613.78;4972543;28;20480;-94
2020/12/20 09:08:10;;;;;;;19.75;8.25;;;;;;;-1.09;46.65;102866.00;4975150;28;20023;-94
2020/12/20 09:10:37;;;;;;;11.48;8.05;;;;;;;-2.00;46.48;102719.88;4958063;28;20055;-94
2020/12/20 09:13:07;;;;;;;15.35;9.45;;;;;;;-1.12;47.04;102869.81;4958477;28;20038;-93
2020/12/20 09:15:43;;;;;;;16.90;9.10;;;;;;;-1.79;48.50;102799.69;4977521;28;20027;-94
2020/12/20 09:18:19;;;;;;;16.88;8.18;;;;;;;-2.98;47.89;102564.47;4964628;28;20538;-93
2020/12/20 09:20:47;;;;;;;23.05;8.70;;;;;;;-1.25;49.28;102878.91;4975641;28;20069;-96
2020/12/20 09:23:24;;;;;;;16.40;8.55;;;;;;;-1.34;50.14;102895.94;4974315;28;20026;-94
2020/12/20 09:26:00;;;;;;;17.67;9.30;;;;;;;-1.42;50.80;102887.50;4953251;28;20089;-96
2020/12/20 09:28:29;;;;;;;16.02;7.97;;;;;;;-2.26;50.91;102730.88;4959904;28;20146;-95
2020/12/20 09:30:58;;;;;;;17.73;6.87;;;;;;;-2.03;51.03;102790.72;4991803;28;20106;-96
2020/12/20 09:34:00;;;;;;;19.65;9.43;;;;;;;-1.40;51.44;102882.81;4994666;28;20026;-95
2020/12/20 09:36:27;;;;;;;23.23;10.07;;;;;;;-1.46;52.43;102891.44;5002596;28;20049;-96
2020/12/20 09:38:57;;;;;;;16.85;7.78;;;;;;;-2.00;52.07;102795.88;4986578;28;20038;-94
2020/12/20 09:41:30;;;;;;;25.43;10.87;;;;;;;-1.28;52.34;102891.88;5001262;28;20069;-91
2020/12/20 09:43:59;;;;;;;23.17;11.48;;;;;;;-1.11;51.99;102880.53;4992300;28;20027;-93
2020/12/20 09:46:31;;;;;;;22.92;9.43;;;;;;;-1.03;51.54;102882.69;4977678;28;20033;-92
2020/12/20 09:48:59;;;;;;;21.83;8.75;;;;;;;-2.26;52.85;102717.31;4998284;28;20041;-96
2020/12/20 09:51:33;;;;;;;21.42;10.25;;;;;;;-1.29;53.08;102890.16;5001976;28;20038;-96
2020/12/20 09:54:01;;;;;;;19.03;9.50;;;;;;;-2.01;53.20;102767.00;4987186;28;20126;-96
2020/12/20 09:56:28;;;;;;;21.52;8.98;;;;;;;-1.80;53.87;102835.97;4975503;28;20270;-94
2020/12/20 09:58:55;;;;;;;17.45;8.35;;;;;;;-1.24;53.58;102894.22;4979210;28;20066;-96
2020/12/20 10:01:28;;;;;;;20.50;8.63;;;;;;;-1.44;52.70;102819.69;4976975;28;20035;-95
2020/12/20 10:03:55;;;;;;;19.33;8.88;;;;;;;-1.16;53.40;102900.94;5006747;28;20041;-96
2020/12/20 10:06:22;;;;;;;16.10;9.57;;;;;;;-1.85;53.63;102783.84;4968146;28;20118;-96
2020/12/20 10:08:52;;;;;;;22.83;9.85;;;;;;;-1.50;53.66;102847.31;4981591;28;20042;-93
2020/12/20 10:11:21;;;;;;;20.23;8.60;;;;;;;-1.58;53.51;102801.75;4977234;28;20023;-96
2020/12/20 10:13:48;;;;;;;15.25;8.85;;;;;;;-1.21;53.12;102848.78;5007853;28;20042;-96
2020/12/20 10:16:22;;;;;;;19.95;9.90;;;;;;;-0.81;53.41;102894.59;4998851;28;20023;-95
2020/12/20 10:18:50;;;;;;;15.15;8.98;;;;;;;-0.82;52.88;102911.91;4992950;28;20034;-94
2020/12/20 10:21:17;;;;;;;17.67;9.63;;;;;;;-1.34;53.22;102808.97;4994581;28;20042;-95
2020/12/20 10:23:44;;;;;;;21.55;10.57;;;;;;;-1.58;52.84;102776.41;4993648;28;20034;-94
2020/12/20 10:26:12;;;;;;;14.63;8.75;;;;;;;-0.93;53.23;102892.81;4998321;28;20093;-94
2020/12/20 10:28:39;;;;;;;17.13;8.07;;;;;;;-1.71;53.23;102762.94;5010500;28;20042;-95
2020/12/20 10:31:06;;;;;;;20.85;9.85;;;;;;;-1.34;53.50;102816.25;4993536;28;20023;-94
2020/12/20 10:33:33;;;;;;;15.85;8.95;;;;;;;-0.91;52.60;102841.91;4976937;28;20089;-94
2020/12/20 10:36:00;;;;;;;19.95;9.57;;;;;;;-0.83;53.44;102916.47;4971583;28;20041;-94
2020/12/20 10:38:27;;;;;;;16.15;8.13;;;;;;;-0.75;53.48;102888.66;4991155;28;20399;-95
2020/12/20 10:40:54;;;;;;;28.85;10.10;;;;;;;-0.77;53.44;102903.38;4998692;28;20102;-93
2020/12/20 10:43:23;;;;;;;17.05;9.88;;;;;;;-1.60;53.63;102754.78;4988310;28;20031;-96
2020/12/20 10:45:50;;;;;;;15.90;8.45;;;;;;;-1.57;53.14;102753.69;4992856;28;20035;-95
2020/12/20 10:48:17;;;;;;;19.17;9.20;;;;;;;-1.56;53.24;102753.59;4981157;28;20037;-95
2020/12/20 10:56:19;;;;;;;19.60;9.32;;;;;;;-0.45;52.52;102880.88;5539791;23;20092;-96
2020/12/20 11:07:47;;;;;;;20.52;10.13;;;;;;;-0.32;52.15;102886.19;4994786;28;20062;-96
2020/12/20 11:15:30;;;;;;;15.73;9.15;;;;;;;-1.17;53.40;102777.75;5009872;28;20050;-96
2020/12/20 11:21:21;;;;;;;15.85;9.45;;;;;;;-0.44;54.08;102877.16;5015297;28;20065;-93
2020/12/20 11:23:51;;;;;;;18.38;9.30;;;;;;;-2.59;52.75;102507.31;4976463;28;20038;-96
2020/12/20 11:26:19;;;;;;;17.50;9.95;;;;;;;-0.45;52.99;102879.03;4995053;28;20034;-93
2020/12/20 11:28:52;;;;;;;20.75;10.50;;;;;;;-1.00;52.98;102789.97;5006335;28;20112;-95
2020/12/20 11:31:22;;;;;;;21.08;9.30;;;;;;;-2.23;53.23;102573.25;4989870;28;20027;-94
2020/12/20 11:34:12;;;;;;;17.83;10.82;;;;;;;-2.22;53.28;102581.28;5007354;28;20026;-95
2020/12/20 11:36:40;;;;;;;22.73;8.88;;;;;;;-0.44;53.08;102886.22;5002890;28;20058;-95
2020/12/20 11:39:09;;;;;;;20.30;10.95;;;;;;;-0.79;53.09;102796.56;4994993;28;20064;-93
2020/12/20 11:41:41;;;;;;;21.05;10.48;;;;;;;-0.44;52.95;102886.22;5186875;23;20054;-94
2020/12/20 11:44:08;;;;;;;16.63;10.38;;;;;;;-1.93;55.75;102618.84;4996602;28;20398;-95
2020/12/20 11:46:37;;;;;;;16.35;9.02;;;;;;;-1.32;54.52;102738.19;4967812;28;20077;-96
2020/12/20 11:49:05;;;;;;;18.17;9.80;;;;;;;-1.98;52.97;102617.44;4983394;28;20054;-96
2020/12/20 11:51:36;;;;;;;21.27;10.13;;;;;;;-0.83;52.72;102823.13;4989694;28;20090;-96
2020/12/20 11:54:39;;;;;;;21.92;10.75;;;;;;;-0.49;52.49;102868.53;4976503;28;20113;-96
2020/12/20 11:57:09;;;;;;;20.58;11.75;;;;;;;-0.76;52.93;102869.75;4982911;28;20023;-96
2020/12/20 11:59:36;;;;;;;;;;;;;;;-0.72;53.12;102874.81;4974043;28;20026;-92
2020/12/20 12:02:08;;;;;;;19.15;11.10;;;;;;;-0.76;53.58;102916.88;4973091;28;19926;-95
2020/12/20 12:05:00;;;;;;;15.48;10.25;;;;;;;-2.56;53.04;102567.59;4967921;28;20035;-96
2020/12/20 12:07:28;;;;;;;28.30;13.40;;;;;;;-1.82;53.79;102702.19;4991192;28;20042;-96
2020/12/20 12:10:06;;;;;;;26.70;13.45;;;;;;;-2.37;53.36;102636.72;5005159;28;20037;-96
2020/12/20 12:12:33;;;;;;;24.38;12.07;;;;;;;-1.06;53.24;102814.97;4980294;28;20025;-94
2020/12/20 12:15:00;;;;;;;22.48;12.73;;;;;;;-1.22;52.81;102800.81;4992611;28;20034;-96
2020/12/20 12:17:27;;;;;;;25.20;12.95;;;;;;;-1.36;53.12;102832.69;4991274;28;20022;-95
2020/12/20 12:19:56;;;;;;;23.15;11.25;;;;;;;-1.17;53.34;102888.31;4977991;28;20014;-94
2020/12/20 12:22:24;;;;;;;27.73;13.77;;;;;;;-1.17;53.77;102882.88;4983891;28;20038;-96
2020/12/20 12:24:52;;;;;;;22.38;11.65;;;;;;;-1.31;54.60;102892.97;4973758;28;20066;-94
2020/12/20 12:27:20;;;;;;;22.92;11.85;;;;;;;-3.31;54.24;102543.34;4992407;28;20034;-94
2020/12/20 12:30:00;;;;;;;24.10;12.18;;;;;;;-1.29;54.58;102884.72;4984692;28;20038;-93
2020/12/20 12:32:27;;;;;;;25.25;12.35;;;;;;;-1.86;54.59;102790.28;4978336;28;20035;-91
2020/12/20 12:34:58;;;;;;;30.42;15.88;;;;;;;-2.28;55.50;102716.53;4967112;28;20050;-91
2020/12/20 12:37:26;;;;;;;36.80;13.18;;;;;;;-1.70;55.72;102846.16;4959571;28;20019;-93
2020/12/20 12:39:53;;;;;;;22.33;12.27;;;;;;;-2.44;56.05;102723.13;4978938;28;20039;-93
2020/12/20 12:42:20;;;;;;;24.83;12.82;;;;;;;-2.16;55.79;102753.63;4974355;28;20054;-93
2020/12/20 12:47:23;;;;;;;25.50;11.38;;;;;;;-1.99;55.50;102792.19;5326388;23;20058;-94
2020/12/20 12:49:50;;;;;;;30.50;13.75;;;;;;;-1.76;55.64;102846.59;4927642;29;20110;-96
2020/12/20 12:52:17;;;;;;;23.40;12.18;;;;;;;-1.97;55.55;102795.69;4926885;29;20139;-96
2020/12/20 12:54:44;;;;;;;19.75;12.25;;;;;;;-1.87;55.43;102807.56;4941546;29;20056;-96